createdAt,value
2022-11-16T12:58:20.619Z,697.50
2022-11-16T12:59:22.585Z,489.38
2022-11-16T13:00:21.540Z,416.25
2022-11-16T13:01:21.624Z,483.75
2022-11-16T13:02:21.798Z,759.38
2022-11-16T13:03:21.680Z,905.62
2022-11-16T13:04:21.499Z,888.75
2022-11-16T13:05:21.475Z,911.25
2022-11-16T13:06:21.612Z,804.38
2022-11-16T13:07:21.519Z,1350.00
2022-11-16T13:08:21.439Z,1811.25
2022-11-16T13:09:21.445Z,1726.88
2022-11-16T13:10:21.446Z,973.12
2022-11-16T13:11:21.410Z,478.12
2022-11-16T13:12:21.389Z,450.00
2022-11-16T13:13:35.836Z,545.62
2022-11-16T13:14:23.486Z,793.12
2022-11-16T13:15:21.358Z,838.12
2022-11-16T13:16:21.488Z,1192.50
2022-11-16T13:17:21.481Z,1288.12
2022-11-16T13:18:21.334Z,658.12
2022-11-16T13:19:21.316Z,815.62
2022-11-16T13:20:21.361Z,956.25
2022-11-16T13:21:21.299Z,618.75
2022-11-16T13:22:21.291Z,455.62
2022-11-16T13:23:21.268Z,320.62
2022-11-16T13:24:21.261Z,292.50
2022-11-16T13:25:21.311Z,286.88
2022-11-16T13:26:22.233Z,264.38
2022-11-16T13:27:21.226Z,270.00
2022-11-16T13:28:21.214Z,303.75
2022-11-16T13:29:21.201Z,326.25
2022-11-16T13:30:21.200Z,303.75
2022-11-16T13:31:21.196Z,315.00
2022-11-16T13:32:21.167Z,281.25
2022-11-16T13:33:21.160Z,281.25
2022-11-16T13:34:21.168Z,309.38
2022-11-16T13:35:21.131Z,365.62
2022-11-16T13:36:21.160Z,348.75
2022-11-16T13:37:21.110Z,298.12
2022-11-16T13:38:21.117Z,275.62
2022-11-16T13:39:22.829Z,270.00
2022-11-16T13:40:22.076Z,303.75
2022-11-16T13:41:21.264Z,365.62
2022-11-16T13:42:21.056Z,461.25
2022-11-16T13:43:21.077Z,613.12
2022-11-16T13:44:21.041Z,798.75
2022-11-16T13:45:21.011Z,905.62
2022-11-16T13:46:53.695Z,1276.88
2022-11-16T13:47:23.035Z,1254.38
2022-11-16T13:48:20.985Z,776.25
2022-11-16T13:49:20.976Z,646.88
2022-11-16T13:50:20.976Z,826.88
2022-11-16T13:51:20.953Z,1220.62
2022-11-16T13:52:24.058Z,1423.12
2022-11-16T13:54:47.244Z,1063.12
2022-11-16T13:55:22.923Z,793.12
2022-11-16T13:56:25.597Z,607.50
